Time;durP1;ratioP1;P1;durP2;ratioP2;P2;SDS_P1;SDS_P2;PMS_P1;PMS_P2;Temp;Humidity;BMP_temperature;BMP_pressure;BME280_temperature;BME280_humidity;BME280_pressure;Samples;Min_cycle;Max_cycle;Signal;HPM_P1;HPM_P2
2023/06/13 06:00:42;;;;;;;51.74;38.20;;;;;;;39.66;36.00;101366.06;6137976;22;2125162;-86
2023/06/13 06:04:04;;;;;;;37.33;27.87;;;;;;;39.64;36.15;101369.06;6157083;23;20172;-85
2023/06/13 06:06:30;;;;;;;35.00;24.60;;;;;;;39.59;36.21;101377.28;6012363;23;20484;-85
2023/06/13 06:08:56;;;;;;;28.00;19.57;;;;;;;39.62;35.84;101375.94;6148427;23;20415;-83
2023/06/13 06:11:22;;;;;;;43.67;23.77;;;;;;;39.70;35.85;101380.63;6158209;23;20380;-81
2023/06/13 06:13:57;;;;;;;27.57;21.70;;;;;;;39.66;35.58;101383.16;6157553;23;20388;-83
2023/06/13 06:16:23;;;;;;;36.13;25.00;;;;;;;39.69;36.00;101387.16;6185229;23;20372;-82
2023/06/13 06:18:50;;;;;;;35.03;23.17;;;;;;;39.73;35.68;101393.59;6158396;23;20383;-84
2023/06/13 06:21:16;;;;;;;24.23;20.57;;;;;;;39.75;36.08;101394.88;6158279;23;20157;-84
2023/06/13 06:23:42;;;;;;;38.63;22.77;;;;;;;39.76;35.91;101396.50;6158312;23;20729;-84
2023/06/13 06:26:10;;;;;;;32.83;22.53;;;;;;;39.78;35.87;101395.38;6158429;23;20377;-84
2023/06/13 06:28:36;;;;;;;29.03;21.90;;;;;;;39.72;35.92;101397.44;6185261;23;20352;-87
2023/06/13 06:31:02;;;;;;;34.30;20.60;;;;;;;39.74;36.14;101408.78;6158766;23;20455;-87
2023/06/13 06:33:28;;;;;;;25.80;20.27;;;;;;;39.82;35.60;101402.63;6158144;23;20502;-86
2023/06/13 06:35:54;;;;;;;32.23;20.10;;;;;;;39.88;35.89;101406.03;6184813;23;20436;-83
2023/06/13 06:38:20;;;;;;;26.43;19.90;;;;;;;39.92;35.61;101409.75;6157770;23;20408;-85
2023/06/13 06:40:46;;;;;;;29.97;21.07;;;;;;;39.97;35.76;101409.63;6182821;23;20395;-84
2023/06/13 06:43:12;;;;;;;22.80;16.97;;;;;;;39.90;35.09;101404.63;6158560;23;20160;-83
2023/06/13 06:45:37;;;;;;;29.80;21.10;;;;;;;39.87;35.86;101401.69;6157927;23;20207;-84
2023/06/13 06:48:04;;;;;;;23.00;17.70;;;;;;;39.86;35.68;101409.06;6156655;23;20157;-84
2023/06/13 06:50:29;;;;;;;31.73;20.30;;;;;;;39.94;35.53;101405.59;6156271;23;20153;-85
2023/06/13 06:52:55;;;;;;;25.63;18.57;;;;;;;40.02;35.69;101414.91;6157824;23;20384;-85
2023/06/13 06:55:22;;;;;;;26.83;19.33;;;;;;;39.83;36.20;101414.28;6184288;23;20424;-84
2023/06/13 06:57:48;;;;;;;28.70;19.83;;;;;;;39.80;35.99;101414.91;6157808;23;20522;-84
2023/06/13 07:00:14;;;;;;;25.70;19.90;;;;;;;39.97;35.86;101420.50;6182975;23;20479;-85
2023/06/13 07:02:43;;;;;;;26.43;17.57;;;;;;;39.93;35.84;101414.06;6130255;23;20459;-86
2023/06/13 07:05:10;;;;;;;23.07;19.57;;;;;;;39.82;36.21;101412.69;6128124;23;20385;-84
2023/06/13 07:07:36;;;;;;;23.13;19.40;;;;;;;39.83;36.74;101417.00;6128358;23;20854;-84
2023/06/13 07:10:05;;;;;;;34.60;21.03;;;;;;;39.85;36.09;101412.88;6128173;23;20393;-86
2023/06/13 07:12:33;;;;;;;28.80;20.70;;;;;;;39.80;35.96;101415.72;6129964;23;20753;-85
2023/06/13 07:14:59;;;;;;;24.57;18.50;;;;;;;39.76;36.09;101404.63;6130050;23;20420;-84
2023/06/13 07:17:25;;;;;;;26.50;18.70;;;;;;;39.59;36.42;101404.44;6130256;23;20866;-84
2023/06/13 07:19:51;;;;;;;22.43;16.07;;;;;;;39.71;36.24;101410.19;6130211;23;20900;-84
2023/06/13 07:22:17;;;;;;;23.87;17.50;;;;;;;39.71;36.19;101407.47;6130012;23;20377;-84
2023/06/13 07:24:43;;;;;;;25.40;16.73;;;;;;;39.76;36.13;101412.00;6130326;23;20393;-83
2023/06/13 07:27:10;;;;;;;24.63;18.40;;;;;;;39.76;36.17;101406.56;6130187;23;20408;-84
2023/06/13 07:29:37;;;;;;;27.83;16.70;;;;;;;39.92;36.52;101424.13;6130083;23;20369;-84
2023/06/13 07:32:03;;;;;;;22.80;17.40;;;;;;;40.03;36.04;101408.41;6130354;23;20365;-83
2023/06/13 07:34:29;;;;;;;23.60;17.37;;;;;;;39.96;35.70;101421.56;6156412;23;20452;-83
2023/06/13 07:36:55;;;;;;;24.33;15.97;;;;;;;39.93;36.04;101408.63;6130142;23;20384;-83
2023/06/13 07:39:21;;;;;;;24.10;16.47;;;;;;;40.06;35.90;101417.88;6156519;23;20358;-81
2023/06/13 07:41:49;;;;;;;25.27;17.40;;;;;;;40.04;35.59;101429.03;6154344;23;20396;-84
2023/06/13 07:44:16;;;;;;;22.70;16.20;;;;;;;40.20;35.61;101424.03;6128151;23;20142;-82
2023/06/13 07:46:42;;;;;;;22.37;15.33;;;;;;;40.19;35.46;101436.81;6128945;23;20380;-83
2023/06/13 07:49:08;;;;;;;27.67;16.13;;;;;;;40.37;35.24;101434.25;6129835;23;20404;-82
2023/06/13 07:51:34;;;;;;;25.57;15.43;;;;;;;40.22;35.46;101432.69;6154465;23;20369;-82
2023/06/13 07:54:00;;;;;;;21.57;17.63;;;;;;;40.36;35.25;101436.16;6128575;23;20440;-82
2023/06/13 07:56:26;;;;;;;23.00;14.77;;;;;;;40.45;35.24;101438.91;6127791;23;20447;-82
2023/06/13 07:58:52;;;;;;;27.57;15.53;;;;;;;40.45;35.48;101441.63;6128311;23;20827;-82
2023/06/13 08:01:21;;;;;;;26.77;14.57;;;;;;;40.29;35.38;101442.03;6127963;23;20437;-83
2023/06/13 08:03:47;;;;;;;17.13;12.57;;;;;;;40.38;35.48;101439.34;6127971;23;20861;-83
2023/06/13 08:06:16;;;;;;;21.90;15.23;;;;;;;40.28;35.20;101440.44;6127875;23;20415;-82
2023/06/13 08:08:42;;;;;;;19.10;14.23;;;;;;;40.37;35.49;101439.66;6129209;23;20166;-84
2023/06/13 08:11:08;;;;;;;19.50;13.70;;;;;;;40.25;35.76;101449.19;6129707;23;20381;-81
2023/06/13 08:13:34;;;;;;;18.00;12.53;;;;;;;40.48;35.30;101444.59;6129632;23;20181;-82
2023/06/13 08:16:01;;;;;;;22.13;15.93;;;;;;;40.22;35.57;101438.13;6129808;23;20828;-83
2023/06/13 08:18:27;;;;;;;34.13;15.37;;;;;;;40.29;35.36;101450.19;6129851;23;20203;-81
2023/06/13 08:20:53;;;;;;;19.80;12.67;;;;;;;40.24;35.87;101442.13;6129728;23;20401;-80
2023/06/13 08:23:19;;;;;;;24.90;13.57;;;;;;;40.42;35.15;101448.50;6129641;23;20388;-87
2023/06/13 08:25:47;;;;;;;17.57;12.20;;;;;;;40.54;35.01;101446.06;6129709;23;20158;-80
2023/06/13 08:28:13;;;;;;;22.43;13.07;;;;;;;40.67;34.83;101449.81;6129453;23;20385;-87
2023/06/13 08:30:39;;;;;;;28.33;13.87;;;;;;;40.29;35.43;101449.38;6129048;23;20725;-88
2023/06/13 08:33:08;;;;;;;21.27;12.30;;;;;;;40.51;35.27;101445.88;6129487;23;20742;-88
2023/06/13 08:35:34;;;;;;;19.27;13.13;;;;;;;40.46;35.61;101448.72;6129033;23;20825;-86
2023/06/13 08:38:00;;;;;;;18.33;12.30;;;;;;;40.80;34.78;101453.56;6127395;23;20381;-87
2023/06/13 08:40:26;;;;;;;23.27;13.27;;;;;;;40.46;35.20;101443.25;6128460;23;20428;-88
2023/06/13 08:42:53;;;;;;;33.00;15.00;;;;;;;40.26;35.34;101449.97;6128474;23;20381;-86
2023/06/13 08:45:20;;;;;;;20.93;13.17;;;;;;;40.62;35.41;101447.22;6129305;23;20376;-86
2023/06/13 08:47:48;;;;;;;21.97;14.00;;;;;;;40.15;35.79;101452.16;6155809;23;20417;-87
2023/06/13 08:50:19;;;;;;;20.70;12.30;;;;;;;40.66;35.06;101453.66;6129435;23;20382;-90
2023/06/13 08:52:47;;;;;;;18.53;12.83;;;;;;;40.74;35.10;101460.25;6129494;23;20845;-87
2023/06/13 08:55:21;;;;;;;19.43;13.20;;;;;;;40.18;35.79;101459.69;6129267;23;20440;-86
2023/06/13 08:57:52;;;;;;;21.93;13.00;;;;;;;40.51;35.14;101473.06;6129255;23;20377;-84
2023/06/13 09:00:19;;;;;;;22.40;12.23;;;;;;;40.36;35.22;101457.09;6129444;23;20377;-84
2023/06/13 09:02:46;;;;;;;27.33;15.60;;;;;;;40.34;35.17;101453.91;6128749;23;20447;-84
2023/06/13 09:05:15;;;;;;;21.17;13.80;;;;;;;40.55;35.25;101458.53;6155916;23;20372;-84
2023/06/13 09:07:41;;;;;;;19.50;12.47;;;;;;;40.57;35.00;101460.13;6129363;23;20858;-85
2023/06/13 09:10:10;;;;;;;19.53;10.70;;;;;;;40.75;34.99;101459.94;6155388;23;20416;-85
2023/06/13 09:12:40;;;;;;;33.97;14.13;;;;;;;40.50;35.28;101457.84;6129294;23;20381;-86
2023/06/13 09:15:07;;;;;;;18.93;12.47;;;;;;;40.68;34.97;101464.22;6155893;23;20491;-90
2023/06/13 09:17:33;;;;;;;19.17;12.20;;;;;;;40.31;35.42;101458.03;6129537;23;20491;-87
2023/06/13 09:20:00;;;;;;;21.80;11.57;;;;;;;40.57;35.56;101460.13;6129539;23;20472;-86
2023/06/13 09:22:29;;;;;;;23.83;13.90;;;;;;;40.81;34.85;101460.59;6128866;23;20385;-86
2023/06/13 09:24:56;;;;;;;16.63;12.40;;;;;;;40.98;34.95;101462.63;6129108;23;20928;-87
2023/06/13 09:27:23;;;;;;;23.20;13.80;;;;;;;40.52;35.22;101471.97;6128866;23;20389;-87
2023/06/13 09:29:49;;;;;;;15.70;11.00;;;;;;;40.51;35.57;101462.19;6129037;23;20385;-88
2023/06/13 09:32:15;;;;;;;17.73;11.97;;;;;;;40.69;35.18;101452.22;6155594;23;20365;-85
2023/06/13 09:34:42;;;;;;;15.83;11.07;;;;;;;40.83;35.17;101461.09;6128750;23;20493;-86
2023/06/13 09:37:09;;;;;;;18.17;10.33;;;;;;;40.82;34.77;101462.19;6129123;23;20180;-85
2023/06/13 09:39:46;;;;;;;23.97;14.60;;;;;;;40.95;35.08;101460.56;6128912;23;20456;-86
2023/06/13 09:42:12;;;;;;;30.67;24.83;;;;;;;40.64;35.14;101458.59;6129039;23;20435;-87
2023/06/13 09:44:38;;;;;;;30.90;25.07;;;;;;;40.83;35.14;101457.59;6155274;23;20423;-87
2023/06/13 09:47:04;;;;;;;61.20;47.43;;;;;;;41.01;35.25;101448.41;6129123;23;20734;-87
2023/06/13 09:49:30;;;;;;;52.03;36.10;;;;;;;40.89;35.00;101446.25;6128752;23;20389;-87
2023/06/13 09:52:00;;;;;;;37.83;23.47;;;;;;;40.59;35.27;101447.84;6153579;23;20388;-85
2023/06/13 09:54:31;;;;;;;28.70;15.97;;;;;;;40.70;35.67;101445.66;6128787;23;20429;-85
2023/06/13 09:56:57;;;;;;;15.63;12.30;;;;;;;40.75;35.37;101450.97;6129003;23;20467;-85
2023/06/13 09:59:26;;;;;;;28.17;16.37;;;;;;;40.90;35.49;101449.78;6155405;23;20423;-85
2023/06/13 10:01:52;;;;;;;18.30;14.50;;;;;;;40.72;35.76;101455.13;6154902;23;20436;-85
2023/06/13 10:04:21;;;;;;;20.53;12.90;;;;;;;40.77;35.61;101455.00;6128931;23;20377;-85
2023/06/13 10:06:47;;;;;;;18.80;13.87;;;;;;;40.38;36.51;101457.59;6128914;23;20377;-85
2023/06/13 10:09:13;;;;;;;22.47;14.13;;;;;;;40.79;35.81;101452.75;6128809;23;20388;-85
2023/06/13 10:11:45;;;;;;;19.50;14.90;;;;;;;41.03;35.33;101452.41;6155275;23;20888;-85
2023/06/13 10:14:16;;;;;;;22.70;15.83;;;;;;;41.21;35.23;101447.84;6128628;23;20456;-85
2023/06/13 10:17:05;;;;;;;19.07;13.90;;;;;;;41.13;35.45;101440.47;6128663;23;20385;-85
2023/06/13 10:19:36;;;;;;;23.37;13.03;;;;;;;41.22;35.37;101444.00;6128735;23;20439;-85
2023/06/13 10:22:05;;;;;;;23.10;13.20;;;;;;;41.50;35.18;101444.59;6128636;23;20381;-85
2023/06/13 10:24:34;;;;;;;26.13;14.13;;;;;;;40.86;35.45;101446.06;6128794;23;20385;-85
2023/06/13 10:27:02;;;;;;;21.03;15.60;;;;;;;40.86;35.47;101437.91;6128866;23;20444;-85
2023/06/13 10:29:56;;;;;;;24.23;13.83;;;;;;;40.74;35.14;101442.00;6128683;23;20377;-85
2023/06/13 10:32:59;;;;;;;26.27;12.47;;;;;;;41.18;35.24;101443.00;6128401;23;20381;-85
2023/06/13 10:35:45;;;;;;;21.37;12.90;;;;;;;41.27;34.84;101438.41;6128560;23;20515;-85
2023/06/13 10:38:24;;;;;;;18.53;12.83;;;;;;;41.00;35.06;101444.06;6128552;23;20389;-86
2023/06/13 10:40:53;;;;;;;24.17;11.77;;;;;;;40.72;35.33;101425.19;6128533;23;20786;-87
2023/06/13 10:43:34;;;;;;;16.83;11.70;;;;;;;40.87;34.98;101425.91;6128896;23;20381;-87
2023/06/13 10:46:05;;;;;;;21.80;14.70;;;;;;;40.62;35.55;101427.38;6129220;23;20464;-87
2023/06/13 10:48:46;;;;;;;22.57;11.97;;;;;;;41.13;35.26;101418.69;6130597;23;20385;-85
2023/06/13 10:51:12;;;;;;;20.73;14.13;;;;;;;41.12;35.20;101418.97;6130741;23;20380;-85
2023/06/13 10:53:38;;;;;;;18.90;11.10;;;;;;;41.43;34.91;101410.75;6130364;23;20463;-85
2023/06/13 10:56:08;;;;;;;18.60;11.90;;;;;;;41.40;34.47;101411.41;6130466;23;20420;-85
2023/06/13 10:58:35;;;;;;;20.73;12.30;;;;;;;41.01;35.29;101404.88;6130568;23;20180;-85
2023/06/13 11:01:29;;;;;;;20.93;12.53;;;;;;;41.17;34.14;101403.31;6129907;23;20401;-85
2023/06/13 11:04:05;;;;;;;20.67;11.33;;;;;;;41.17;34.28;101397.88;6098824;23;20430;-86
2023/06/13 11:06:31;;;;;;;16.70;11.57;;;;;;;41.20;34.24;101391.81;6101032;23;20614;-84
2023/06/13 11:09:26;;;;;;;21.80;10.80;;;;;;;41.25;34.53;101388.13;6100765;23;20378;-84
2023/06/13 11:11:55;;;;;;;20.10;9.40;;;;;;;41.13;34.84;101388.75;6100853;23;20445;-84
2023/06/13 11:14:26;;;;;;;22.50;11.23;;;;;;;41.39;34.09;101385.31;6100048;23;20513;-85
2023/06/13 11:16:53;;;;;;;16.83;11.87;;;;;;;41.22;34.61;101373.22;6100704;23;20370;-84
2023/06/13 11:19:24;;;;;;;18.00;10.80;;;;;;;41.11;34.78;101371.91;6100837;23;20374;-87
2023/06/13 11:22:11;;;;;;;16.50;11.17;;;;;;;41.63;34.06;101369.31;6100678;23;20419;-86
2023/06/13 11:24:40;;;;;;;19.70;10.87;;;;;;;41.64;34.16;101367.38;6100778;23;20380;-86
2023/06/13 11:27:13;;;;;;;23.50;11.00;;;;;;;41.56;34.33;101369.00;6100847;23;20378;-83
2023/06/13 11:29:39;;;;;;;14.10;9.53;;;;;;;41.51;34.03;101363.69;6100738;23;20402;-86
2023/06/13 11:32:08;;;;;;;18.63;10.20;;;;;;;41.51;33.27;101361.78;6125417;23;20874;-90
2023/06/13 11:34:41;;;;;;;15.70;9.37;;;;;;;41.31;33.37;101359.63;6100768;23;20426;-87
2023/06/13 11:37:20;;;;;;;15.37;8.80;;;;;;;41.46;33.41;101355.69;6097187;23;20916;-87
2023/06/13 11:39:53;;;;;;;18.20;11.93;;;;;;;41.31;33.32;101360.44;6125039;23;20381;-86
2023/06/13 11:42:20;;;;;;;13.57;8.73;;;;;;;41.81;32.93;101357.31;6100671;23;20385;-83
2023/06/13 11:44:47;;;;;;;20.03;9.70;;;;;;;41.94;32.16;101354.75;6126229;23;20358;-86
2023/06/13 11:47:13;;;;;;;11.70;8.50;;;;;;;41.71;32.26;101354.88;6099387;23;20382;-87
2023/06/13 11:52:28;;;;;;;13.63;8.63;;;;;;;41.75;32.52;101346.91;6124037;23;20393;-83
2023/06/13 11:54:59;;;;;;;12.00;8.20;;;;;;;41.86;32.33;101342.72;6098575;23;20509;-85
2023/06/13 11:57:46;;;;;;;15.07;9.20;;;;;;;41.67;32.06;101345.75;6100237;23;20382;-83
2023/06/13 12:00:57;;;;;;;16.70;9.70;;;;;;;41.55;32.40;101342.84;6125009;23;20390;-85
2023/06/13 12:03:43;;;;;;;;;;;;;;;;;;;;;
2023/06/13 12:06:09;;;;;;;12.20;7.80;;;;;;;41.66;32.15;101344.13;6154794;23;20777;-84
2023/06/13 12:08:36;;;;;;;16.10;9.10;;;;;;;41.70;31.99;101345.13;6129000;23;20381;-83
2023/06/13 12:11:05;;;;;;;16.93;8.80;;;;;;;41.60;32.17;101340.78;6129427;23;20409;-85
2023/06/13 12:13:35;;;;;;;13.40;8.00;;;;;;;41.77;32.01;101342.72;6127637;23;20381;-84
2023/06/13 12:16:01;;;;;;;23.23;9.10;;;;;;;41.90;31.68;101334.69;6129609;23;20424;-83
2023/06/13 12:18:30;;;;;;;15.87;9.80;;;;;;;41.86;32.03;101332.59;6155962;23;20799;-85
2023/06/13 12:20:58;;;;;;;21.77;9.70;;;;;;;41.82;31.57;101322.69;6130451;23;20392;-86
2023/06/13 12:23:27;;;;;;;13.20;8.53;;;;;;;41.57;32.00;101319.66;6156050;23;20361;-87
2023/06/13 12:25:53;;;;;;;18.83;8.20;;;;;;;41.54;32.76;101324.91;6129774;23;20403;-85
2023/06/13 12:28:21;;;;;;;16.83;10.67;;;;;;;41.71;32.13;101316.75;6155904;23;20945;-84
2023/06/13 12:30:49;;;;;;;13.70;8.57;;;;;;;41.51;31.92;101309.22;6129790;23;20389;-85
2023/06/13 12:33:18;;;;;;;14.23;9.07;;;;;;;41.76;32.09;101299.47;6129701;23;20392;-84
2023/06/13 12:35:52;;;;;;;15.73;9.20;;;;;;;41.95;31.47;101318.19;6129365;23;20987;-85
2023/06/13 12:38:20;;;;;;;18.40;9.50;;;;;;;41.63;31.74;101305.88;6129780;23;20389;-85
2023/06/13 12:40:51;;;;;;;15.00;9.53;;;;;;;41.80;31.93;101294.97;6128304;23;20808;-85
2023/06/13 12:43:23;;;;;;;16.87;9.93;;;;;;;41.83;31.99;101292.41;6153906;23;20362;-84
2023/06/13 12:45:49;;;;;;;16.90;9.40;;;;;;;41.84;32.76;101285.03;6126864;23;20405;-85
2023/06/13 12:48:19;;;;;;;18.27;10.03;;;;;;;41.42;33.64;101287.44;6127021;23;20480;-85
2023/06/13 12:50:47;;;;;;;13.27;8.70;;;;;;;41.80;33.28;101284.06;6126936;23;20516;-84
2023/06/13 12:53:18;;;;;;;13.97;9.70;;;;;;;41.93;33.36;101271.38;6153707;23;20360;-85
2023/06/13 12:55:44;;;;;;;14.47;10.20;;;;;;;41.49;34.31;101281.50;6154203;23;20405;-84
2023/06/13 12:58:31;;;;;;;19.97;10.50;;;;;;;41.90;33.59;101278.28;6129213;23;20412;-84
2023/06/13 13:01:07;;;;;;;18.23;11.43;;;;;;;42.04;33.31;101273.41;6129163;23;20408;-83
2023/06/13 13:03:35;;;;;;;19.17;10.73;;;;;;;41.84;33.14;101258.56;6128990;23;20443;-84
2023/06/13 13:06:02;;;;;;;17.40;10.37;;;;;;;41.92;33.11;101248.78;6129099;23;20753;-85
2023/06/13 13:08:28;;;;;;;14.50;9.87;;;;;;;41.88;32.96;101247.03;6128719;23;20846;-85
2023/06/13 13:10:55;;;;;;;26.00;11.27;;;;;;;41.77;33.64;101243.84;6129169;23;20377;-84
2023/06/13 13:13:22;;;;;;;19.50;9.63;;;;;;;42.01;33.34;101235.94;6128964;23;20411;-84
2023/06/13 13:15:48;;;;;;;12.83;9.90;;;;;;;41.97;33.57;101232.25;6129036;23;20425;-84
2023/06/13 13:18:15;;;;;;;22.53;12.00;;;;;;;42.00;32.95;101231.63;6129057;23;20377;-83
2023/06/13 13:20:42;;;;;;;14.83;10.00;;;;;;;42.21;32.86;101225.47;6129155;23;20401;-85
2023/06/13 13:23:08;;;;;;;19.07;10.43;;;;;;;42.27;32.24;101216.78;6129219;23;20377;-83
2023/06/13 13:25:35;;;;;;;15.40;9.93;;;;;;;42.23;32.49;101215.81;6128723;23;20385;-85
2023/06/13 13:28:01;;;;;;;18.00;10.93;;;;;;;42.10;33.00;101211.34;6128960;23;20408;-84
2023/06/13 13:30:28;;;;;;;22.07;11.50;;;;;;;42.39;32.41;101197.78;6129063;23;20381;-85
2023/06/13 13:32:54;;;;;;;18.30;9.13;;;;;;;42.56;32.03;101196.09;6155690;23;20732;-85
2023/06/13 13:35:20;;;;;;;18.13;10.67;;;;;;;42.59;31.05;101192.72;6129422;23;20919;-83
2023/06/13 13:37:47;;;;;;;20.47;10.63;;;;;;;42.39;31.44;101195.06;6128680;23;20432;-83
2023/06/13 13:40:15;;;;;;;18.00;8.93;;;;;;;42.56;31.34;101193.34;6129300;23;20374;-83
2023/06/13 13:42:41;;;;;;;17.00;8.70;;;;;;;42.61;31.49;101182.28;6128740;23;20752;-86
2023/06/13 13:45:08;;;;;;;15.50;9.80;;;;;;;42.38;31.84;101168.13;6129249;23;20861;-86
2023/06/13 13:47:34;;;;;;;19.77;10.47;;;;;;;42.65;31.62;101178.53;6128927;23;20518;-86
2023/06/13 13:50:01;;;;;;;21.67;12.93;;;;;;;42.54;31.45;101171.88;6128830;23;20381;-86
2023/06/13 13:52:27;;;;;;;20.43;10.30;;;;;;;42.16;32.01;101171.09;6128852;23;20394;-85
2023/06/13 13:54:53;;;;;;;19.77;9.83;;;;;;;42.36;32.16;101154.03;6128720;23;20451;-85
2023/06/13 13:57:19;;;;;;;22.10;10.07;;;;;;;42.72;32.00;101166.31;6128859;23;20377;-89
2023/06/13 13:59:48;;;;;;;20.93;10.43;;;;;;;42.80;31.25;101144.41;6128739;23;20833;-85
2023/06/13 14:02:14;;;;;;;14.00;9.07;;;;;;;42.73;31.15;101152.34;6128573;23;20476;-91
2023/06/13 14:04:43;;;;;;;23.60;12.43;;;;;;;42.85;30.67;101144.22;6129065;23;20398;-93
2023/06/13 14:07:25;;;;;;;17.80;11.47;;;;;;;42.93;30.77;101137.09;6127923;23;20480;-95
2023/06/13 14:10:22;;;;;;;21.93;12.47;;;;;;;42.94;30.59;101141.41;6082744;23;20385;-95
2023/06/13 14:13:08;;;;;;;20.67;10.90;;;;;;;43.16;30.03;101145.75;6157486;23;20435;-91
2023/06/13 14:15:45;;;;;;;17.23;10.63;;;;;;;43.17;31.01;101137.22;6093002;23;20429;-90
2023/06/13 14:18:25;;;;;;;22.53;12.47;;;;;;;43.13;30.08;101121.84;6167302;23;20384;-91
2023/06/13 14:20:53;;;;;;;15.30;10.70;;;;;;;43.09;31.00;101120.91;6154255;23;20388;-89
2023/06/13 14:23:30;;;;;;;19.63;11.27;;;;;;;43.26;30.85;101120.72;6090647;23;20604;-93
2023/06/13 14:25:58;;;;;;;17.87;11.20;;;;;;;43.35;30.77;101118.72;6131880;23;20389;-90
2023/06/13 14:28:25;;;;;;;19.03;9.80;;;;;;;43.27;30.91;101108.66;6133161;23;20472;-90
2023/06/13 14:30:51;;;;;;;24.80;11.50;;;;;;;43.45;30.63;101120.22;6131221;23;20389;-73
2023/06/13 14:33:17;;;;;;;15.33;9.43;;;;;;;43.40;30.32;101120.44;6154779;23;20366;-88
2023/06/13 14:35:44;;;;;;;19.00;9.67;;;;;;;43.28;31.43;101114.91;6126818;23;20436;-88
2023/06/13 14:38:10;;;;;;;23.87;11.67;;;;;;;43.42;30.73;101113.53;6127200;23;20926;-88
2023/06/13 14:40:36;;;;;;;20.07;11.00;;;;;;;43.45;30.57;101106.56;6128185;23;20409;-88
2023/06/13 14:43:02;;;;;;;16.07;10.40;;;;;;;43.62;30.10;101095.44;6128913;23;20389;-89
2023/06/13 14:45:29;;;;;;;16.30;11.13;;;;;;;43.36;30.48;101097.66;6128169;23;20389;-88
2023/06/13 14:47:55;;;;;;;18.60;11.20;;;;;;;43.63;30.09;101091.56;6126314;23;20439;-89
2023/06/13 14:50:23;;;;;;;18.47;10.10;;;;;;;43.38;29.99;101087.19;6127799;23;20484;-88
2023/06/13 14:52:50;;;;;;;23.17;11.23;;;;;;;43.53;30.29;101083.84;6105218;23;20480;-88
2023/06/13 14:55:16;;;;;;;19.63;11.10;;;;;;;43.61;30.17;101073.94;6128291;23;20429;-88
2023/06/13 14:57:42;;;;;;;16.60;9.63;;;;;;;43.43;30.51;101076.06;6127690;23;20476;-88
2023/06/13 15:00:10;;;;;;;29.00;14.40;;;;;;;43.71;29.89;101071.53;6128069;23;20405;-85
2023/06/13 15:02:36;;;;;;;18.23;11.27;;;;;;;43.83;29.33;101068.03;6127375;23;20436;-86
2023/06/13 15:05:03;;;;;;;14.50;9.77;;;;;;;44.02;29.77;101069.38;6128877;23;20834;-86
2023/06/13 15:07:29;;;;;;;17.53;9.27;;;;;;;43.91;30.01;101066.31;6155138;23;20358;-86
2023/06/13 15:09:55;;;;;;;16.87;8.30;;;;;;;43.87;28.93;101062.66;6128682;23;20389;-87
2023/06/13 15:12:21;;;;;;;17.23;9.40;;;;;;;44.08;29.66;101057.06;6128694;23;20180;-85
2023/06/13 15:14:47;;;;;;;18.70;9.70;;;;;;;44.07;29.81;101064.44;6128559;23;20177;-87
2023/06/13 15:17:13;;;;;;;24.07;10.73;;;;;;;44.29;29.07;101060.47;6128631;23;20384;-86
2023/06/13 15:19:39;;;;;;;17.07;10.00;;;;;;;43.81;29.93;101059.38;6128905;23;20416;-88
2023/06/13 15:22:05;;;;;;;17.33;10.60;;;;;;;44.25;29.41;101051.34;6129290;23;20384;-89
2023/06/13 15:24:32;;;;;;;25.47;10.43;;;;;;;44.13;29.12;101060.34;6128610;23;20387;-89
2023/06/13 15:26:58;;;;;;;15.60;9.47;;;;;;;44.26;28.87;101055.69;6129430;23;20397;-82
2023/06/13 15:29:24;;;;;;;17.57;9.13;;;;;;;44.13;28.85;101048.59;6127690;23;20391;-86
2023/06/13 15:31:50;;;;;;;16.97;8.80;;;;;;;44.15;28.54;101049.88;6127587;23;20504;-92
2023/06/13 15:34:16;;;;;;;23.37;8.60;;;;;;;44.13;28.68;101060.34;6130682;23;20440;-92
2023/06/13 15:36:42;;;;;;;17.47;8.53;;;;;;;44.14;28.27;101051.03;6129276;23;20393;-86
2023/06/13 15:39:08;;;;;;;17.83;8.17;;;;;;;44.24;28.22;101049.75;6129702;23;20590;-87
2023/06/13 15:41:36;;;;;;;16.00;7.70;;;;;;;44.07;28.15;101050.00;6130176;23;20153;-84
2023/06/13 15:44:29;;;;;;;17.57;8.10;;;;;;;43.96;28.66;101045.03;6139421;23;20397;-81
2023/06/13 15:47:00;;;;;;;26.07;11.07;;;;;;;44.13;28.24;101032.22;6149586;23;20362;-82
2023/06/13 15:49:37;;;;;;;16.90;7.50;;;;;;;43.94;28.33;101028.16;6117588;23;20394;-90
2023/06/13 15:52:05;;;;;;;15.37;8.70;;;;;;;44.26;28.64;101031.09;6140552;23;20396;-87
2023/06/13 15:54:31;;;;;;;17.20;9.10;;;;;;;44.29;28.29;101030.38;6128250;23;20459;-89
2023/06/13 15:56:57;;;;;;;13.33;7.97;;;;;;;44.30;27.56;101025.69;6129700;23;20393;-89
2023/06/13 15:59:24;;;;;;;18.53;7.90;;;;;;;44.09;27.74;101031.31;6155704;23;20154;-89
2023/06/13 16:01:50;;;;;;;14.33;7.07;;;;;;;43.91;28.38;101023.38;6129867;23;20532;-87
2023/06/13 16:04:16;;;;;;;17.37;8.50;;;;;;;43.64;28.78;101034.97;6129425;23;20866;-87
2023/06/13 16:06:42;;;;;;;13.40;7.30;;;;;;;43.52;28.73;101027.59;6130305;23;20429;-88
2023/06/13 16:09:09;;;;;;;16.87;9.73;;;;;;;43.70;28.05;101036.34;6130472;23;20425;-88
2023/06/13 16:11:36;;;;;;;14.90;7.67;;;;;;;43.55;28.43;101043.31;6130130;23;20424;-87
2023/06/13 16:14:02;;;;;;;18.97;9.37;;;;;;;43.55;28.97;101046.03;6130060;23;20412;-87
2023/06/13 16:16:28;;;;;;;17.83;9.20;;;;;;;43.70;29.47;101047.28;6155827;23;20381;-87
2023/06/13 16:18:53;;;;;;;14.07;7.13;;;;;;;43.62;29.66;101051.72;6135458;23;20405;-87
2023/06/13 16:21:19;;;;;;;13.17;7.70;;;;;;;43.43;30.34;101055.03;6100335;23;20378;-87
2023/06/13 16:23:45;;;;;;;13.13;9.10;;;;;;;43.19;29.38;101049.50;6100525;23;20394;-86
2023/06/13 16:26:11;;;;;;;19.17;9.23;;;;;;;43.29;29.88;101059.19;6100814;23;20388;-88
2023/06/13 16:28:38;;;;;;;18.40;10.00;;;;;;;43.30;29.79;101053.38;6100514;23;20154;-89
2023/06/13 16:31:04;;;;;;;22.40;11.23;;;;;;;43.58;29.66;101060.94;6100980;23;20157;-87
2023/06/13 16:33:30;;;;;;;18.50;9.50;;;;;;;43.41;28.98;101068.22;6100292;23;20854;-86
2023/06/13 16:35:56;;;;;;;13.80;7.93;;;;;;;43.23;28.82;101058.63;6099987;23;20426;-87
2023/06/13 16:38:29;;;;;;;20.80;9.80;;;;;;;43.30;29.63;101060.78;6100257;23;20413;-87
2023/06/13 16:40:55;;;;;;;22.63;10.67;;;;;;;43.10;29.36;101067.91;6100202;23;20390;-86
2023/06/13 16:43:23;;;;;;;19.70;8.70;;;;;;;43.21;29.81;101079.19;6100369;23;20498;-87
2023/06/13 16:45:49;;;;;;;14.90;7.70;;;;;;;43.17;29.62;101074.41;6126207;23;20673;-87
2023/06/13 16:48:15;;;;;;;16.63;9.87;;;;;;;43.07;29.38;101077.56;6100458;23;20851;-88
2023/06/13 16:50:41;;;;;;;19.33;9.80;;;;;;;42.98;29.49;101084.22;6100194;23;20421;-88
2023/06/13 16:53:07;;;;;;;23.13;9.43;;;;;;;42.98;29.24;101089.69;6100715;23;20386;-89
2023/06/13 16:55:36;;;;;;;18.57;8.27;;;;;;;43.17;28.59;101095.47;6104762;23;20472;-88
2023/06/13 16:58:04;;;;;;;12.60;7.90;;;;;;;43.27;29.12;101084.09;6102869;23;20386;-87
2023/06/13 17:00:30;;;;;;;16.70;9.73;;;;;;;43.08;28.54;101081.09;6132864;23;20382;-86
2023/06/13 17:02:56;;;;;;;22.47;8.80;;;;;;;43.18;28.57;101089.66;6101646;23;20778;-90
2023/06/13 17:05:23;;;;;;;16.63;8.80;;;;;;;43.08;28.70;101086.56;6124805;23;20410;-88
2023/06/13 17:07:49;;;;;;;16.93;9.53;;;;;;;42.97;28.26;101077.97;6100400;23;20386;-87
2023/06/13 17:10:19;;;;;;;18.13;9.17;;;;;;;43.04;28.73;101094.63;6099873;23;20418;-87
2023/06/13 17:12:46;;;;;;;22.13;8.90;;;;;;;42.99;28.52;101080.41;6124712;23;20445;-87
2023/06/13 17:15:12;;;;;;;18.43;8.77;;;;;;;42.86;28.71;101074.88;6100993;23;20440;-88
2023/06/13 17:17:44;;;;;;;17.30;8.80;;;;;;;42.94;29.46;101078.63;6125937;23;20382;-88
2023/06/13 17:20:10;;;;;;;19.50;9.13;;;;;;;42.91;29.51;101087.50;6100369;23;20397;-91
2023/06/13 17:22:39;;;;;;;16.70;9.80;;;;;;;42.80;29.50;101075.41;6100150;23;20394;-89
2023/06/13 17:25:06;;;;;;;15.40;9.27;;;;;;;42.68;29.71;101075.38;6100896;23;20386;-88